Time;durP1;ratioP1;P1;durP2;ratioP2;P2;SDS_P1;SDS_P2;PMS_P1;PMS_P2;Temp;Humidity;BMP_temperature;BMP_pressure;BME280_temperature;BME280_humidity;BME280_pressure;Samples;Min_cycle;Max_cycle;Signal;HPM_P1;HPM_P2
2023/09/29 04:08:03;;;;;;;9.05;5.95;;;;;;;12.95;100.00;101010.97;5578910;27;20207;-86
2023/09/29 04:11:07;;;;;;;11.70;6.65;;;;;;;12.91;100.00;101010.47;5422353;32;34842;-86
2023/09/29 04:14:10;;;;;;;13.30;6.32;;;;;;;12.81;100.00;101014.41;5409052;32;33316;-86
2023/09/29 04:17:35;;;;;;;10.65;5.93;;;;;;;12.77;100.00;101013.94;5423656;32;32936;-86
2023/09/29 04:20:38;;;;;;;11.27;6.47;;;;;;;12.78;100.00;101012.94;5421539;32;33435;-86
2023/09/29 04:23:42;;;;;;;9.45;6.45;;;;;;;12.80;100.00;101018.97;5425184;32;33367;-86
2023/09/29 04:26:45;;;;;;;11.12;6.30;;;;;;;12.82;100.00;101014.25;5396498;32;33001;-86
2023/09/29 04:29:48;;;;;;;9.75;6.93;;;;;;;12.85;100.00;101021.16;5434178;32;33268;-86
2023/09/29 04:32:52;;;;;;;9.55;6.15;;;;;;;12.88;100.00;101018.09;5420407;32;33571;-86
2023/09/29 04:35:55;;;;;;;10.15;5.95;;;;;;;12.88;100.00;101018.09;5420498;32;33718;-86
2023/09/29 04:38:58;;;;;;;9.80;6.60;;;;;;;12.87;100.00;101021.81;5419766;32;33320;-86
2023/09/29 04:42:05;;;;;;;9.68;6.32;;;;;;;12.82;100.00;101021.53;5408038;32;33395;-86
2023/09/29 04:45:08;;;;;;;10.57;6.32;;;;;;;12.80;100.00;101028.94;5420634;32;34090;-86
2023/09/29 04:48:11;;;;;;;12.07;6.47;;;;;;;12.77;100.00;101030.13;5433840;32;33675;-86
2023/09/29 04:51:14;;;;;;;12.68;6.35;;;;;;;12.76;100.00;101039.28;5407379;32;33517;-86
2023/09/29 04:54:18;;;;;;;13.98;6.28;;;;;;;12.73;100.00;101042.34;5408487;32;33124;-86
2023/09/29 04:57:22;;;;;;;10.75;6.18;;;;;;;12.73;100.00;101041.50;5395939;32;33611;-86
2023/09/29 05:00:26;;;;;;;10.80;5.85;;;;;;;12.75;100.00;101037.56;5433623;32;33374;-89
2023/09/29 05:03:29;;;;;;;9.73;6.80;;;;;;;12.82;100.00;101041.28;5420068;32;33657;-90
2023/09/29 05:06:33;;;;;;;10.30;6.28;;;;;;;12.86;100.00;101039.06;5421042;32;32966;-90
2023/09/29 05:09:36;;;;;;;11.70;6.65;;;;;;;12.97;100.00;101044.06;5420408;32;34030;-87
2023/09/29 05:12:41;;;;;;;14.70;6.97;;;;;;;13.02;100.00;101038.13;5439613;32;33788;-87
2023/09/29 05:15:44;;;;;;;10.43;7.07;;;;;;;13.08;100.00;101040.13;5433707;32;33845;-86
2023/09/29 05:18:48;;;;;;;11.90;6.97;;;;;;;13.14;100.00;101052.94;5434152;32;33410;-86
2023/09/29 05:21:51;;;;;;;13.88;6.85;;;;;;;13.23;100.00;101045.62;5433699;32;33455;-86
2023/09/29 05:24:54;;;;;;;13.38;6.32;;;;;;;13.30;100.00;101049.31;5433071;32;33302;-86
2023/09/29 05:27:57;;;;;;;13.27;7.25;;;;;;;13.38;100.00;101060.91;5432166;32;34147;-86
2023/09/29 05:31:01;;;;;;;12.77;7.37;;;;;;;13.48;100.00;101043.59;5414387;32;33293;-86
2023/09/29 05:34:03;;;;;;;13.82;7.30;;;;;;;13.60;100.00;101048.41;5401415;32;33305;-86
2023/09/29 05:37:07;;;;;;;18.75;7.12;;;;;;;13.70;100.00;101048.16;5413020;32;33452;-86
2023/09/29 05:40:11;;;;;;;11.23;6.90;;;;;;;13.87;100.00;101048.88;5439788;32;34219;-86
2023/09/29 05:43:15;;;;;;;10.57;6.53;;;;;;;14.05;100.00;101043.94;5418641;32;32949;-86
2023/09/29 05:46:18;;;;;;;20.67;6.60;;;;;;;14.16;100.00;101048.09;5414764;32;33836;-86
2023/09/29 05:49:21;;;;;;;10.80;7.18;;;;;;;14.27;100.00;101046.78;5389611;32;33579;-86
2023/09/29 05:52:25;;;;;;;12.77;7.07;;;;;;;14.45;100.00;101046.41;5405528;32;33347;-86
2023/09/29 05:55:28;;;;;;;9.40;6.43;;;;;;;14.62;100.00;101056.06;5414322;32;33356;-86
2023/09/29 05:58:30;;;;;;;12.73;6.70;;;;;;;14.89;100.00;101045.59;5438088;32;32998;-86
2023/09/29 06:01:33;;;;;;;11.38;6.80;;;;;;;15.20;100.00;101048.84;5425455;32;35146;-86
2023/09/29 06:04:37;;;;;;;12.80;7.43;;;;;;;15.39;100.00;101047.41;5413121;32;33411;-86
2023/09/29 06:07:40;;;;;;;11.23;6.85;;;;;;;15.52;100.00;101054.81;5420839;32;34233;-86
2023/09/29 06:10:44;;;;;;;12.25;6.62;;;;;;;15.71;100.00;101053.38;5416914;32;34334;-86
2023/09/29 06:13:47;;;;;;;13.77;7.25;;;;;;;15.75;100.00;101056.53;5416809;32;34150;-86
2023/09/29 06:16:50;;;;;;;15.60;7.35;;;;;;;15.77;100.00;101062.62;5408644;32;33043;-86
2023/09/29 06:19:53;;;;;;;15.23;7.37;;;;;;;15.85;100.00;101057.03;5421085;32;32902;-86
2023/09/29 06:22:56;;;;;;;9.90;6.15;;;;;;;15.90;100.00;101062.72;5414603;32;32806;-87
2023/09/29 06:26:00;;;;;;;11.73;6.70;;;;;;;15.98;100.00;101059.03;5393574;32;33389;-86
2023/09/29 06:29:05;;;;;;;14.75;7.60;;;;;;;16.01;100.00;101064.06;5435585;32;33476;-86
2023/09/29 06:32:09;;;;;;;9.18;6.45;;;;;;;16.14;100.00;101063.31;5420157;32;34554;-86
2023/09/29 06:35:14;;;;;;;9.90;6.70;;;;;;;16.31;100.00;101064.69;5412690;32;33483;-85
2023/09/29 06:38:17;;;;;;;9.10;5.85;;;;;;;16.37;100.00;101063.91;5408602;32;34047;-86
2023/09/29 06:41:21;;;;;;;10.90;6.87;;;;;;;16.45;100.00;101061.03;5421291;32;32833;-86
2023/09/29 06:44:24;;;;;;;9.25;6.65;;;;;;;16.59;100.00;101067.37;5410189;32;33367;-84
2023/09/29 06:47:27;;;;;;;10.02;6.40;;;;;;;16.72;100.00;101069.31;5422223;32;33313;-85
2023/09/29 06:50:30;;;;;;;13.32;7.20;;;;;;;16.86;100.00;101068.38;5419956;32;33311;-85
2023/09/29 06:53:34;;;;;;;10.60;6.55;;;;;;;16.94;100.00;101073.66;5406547;32;33231;-87
2023/09/29 06:56:37;;;;;;;10.48;7.22;;;;;;;17.11;100.00;101071.44;5391211;32;33460;-87
2023/09/29 06:59:40;;;;;;;8.00;5.87;;;;;;;17.27;100.00;101081.09;5404319;32;32930;-87
2023/09/29 07:02:44;;;;;;;11.80;7.25;;;;;;;17.38;100.00;101075.06;5415568;32;33680;-87
2023/09/29 07:05:47;;;;;;;10.88;6.80;;;;;;;17.47;100.00;101069.44;5391779;32;34495;-87
2023/09/29 07:08:50;;;;;;;9.68;6.90;;;;;;;17.68;100.00;101083.69;5391687;32;33110;-87
2023/09/29 07:11:53;;;;;;;15.80;7.55;;;;;;;17.93;100.00;101091.31;5403133;32;33297;-85
2023/09/29 07:14:56;;;;;;;12.27;6.18;;;;;;;18.10;100.00;101091.72;5415549;32;34373;-87
2023/09/29 07:18:00;;;;;;;11.88;6.40;;;;;;;18.21;100.00;101088.34;5420547;32;33814;-89
2023/09/29 07:21:04;;;;;;;12.32;6.78;;;;;;;18.37;100.00;101092.56;5435373;32;34767;-90
2023/09/29 07:24:08;;;;;;;11.38;6.57;;;;;;;18.53;100.00;101091.25;5409380;32;35042;-88
2023/09/29 07:27:12;;;;;;;11.98;7.18;;;;;;;18.70;100.00;101091.66;5434565;32;34115;-86
2023/09/29 07:30:15;;;;;;;11.68;6.65;;;;;;;18.91;100.00;101087.81;5435063;32;33684;-83
2023/09/29 07:33:19;;;;;;;11.15;6.15;;;;;;;19.16;100.00;101091.50;5434053;32;34657;-84
2023/09/29 07:36:23;;;;;;;9.98;6.45;;;;;;;19.39;100.00;101088.25;5417551;32;34252;-83
2023/09/29 07:39:26;;;;;;;10.95;5.68;;;;;;;19.49;100.00;101095.94;5415252;32;33054;-85
2023/09/29 07:42:29;;;;;;;11.10;6.18;;;;;;;19.68;100.00;101092.28;5408653;32;33491;-85
2023/09/29 07:45:32;;;;;;;10.60;5.65;;;;;;;19.80;97.93;101091.56;5408284;32;33015;-86
2023/09/29 07:48:36;;;;;;;11.73;6.00;;;;;;;19.90;93.88;101100.12;5432541;32;33850;-85
2023/09/29 07:51:39;;;;;;;9.73;6.28;;;;;;;20.01;94.72;101093.94;5408825;32;34751;-85
2023/09/29 07:54:43;;;;;;;9.77;5.10;;;;;;;20.20;93.04;101094.00;5408360;32;35022;-84
2023/09/29 07:57:45;;;;;;;9.73;5.37;;;;;;;20.31;93.23;101096.00;5410490;32;33686;-84
2023/09/29 08:00:48;;;;;;;9.13;5.93;;;;;;;20.47;91.33;101092.66;5410327;32;33404;-85
2023/09/29 08:03:51;;;;;;;7.40;5.20;;;;;;;20.80;91.53;101097.84;5420722;32;33215;-84
2023/09/29 08:06:54;;;;;;;9.90;5.50;;;;;;;20.97;90.98;101095.31;5419934;32;33443;-84
2023/09/29 08:09:58;;;;;;;11.93;5.43;;;;;;;21.03;83.76;101093.53;5419755;32;33415;-84
2023/09/29 08:13:01;;;;;;;6.43;4.85;;;;;;;21.02;81.30;101089.97;5389664;32;33034;-85
2023/09/29 08:16:04;;;;;;;9.13;5.03;;;;;;;21.38;83.43;101091.03;5401997;32;33397;-84
2023/09/29 08:19:07;;;;;;;7.97;5.07;;;;;;;21.46;82.31;101093.44;5390111;32;33244;-84
2023/09/29 08:22:10;;;;;;;10.80;5.55;;;;;;;21.59;84.39;101086.94;5424545;32;33802;-85
2023/09/29 08:25:14;;;;;;;7.40;4.97;;;;;;;21.71;80.84;101090.53;5400080;32;33610;-84
2023/09/29 08:28:17;;;;;;;9.38;5.20;;;;;;;21.88;80.07;101093.44;5403525;32;33203;-84
2023/09/29 08:31:20;;;;;;;9.60;5.45;;;;;;;22.02;79.90;101090.47;5414381;32;33391;-85
2023/09/29 08:34:25;;;;;;;8.13;4.60;;;;;;;22.04;79.72;101091.09;5429882;32;33134;-85
2023/09/29 08:37:28;;;;;;;7.85;4.82;;;;;;;22.20;78.45;101095.91;5410040;32;32721;-85
2023/09/29 08:40:36;;;;;;;8.55;4.90;;;;;;;22.31;79.64;101089.56;5396720;32;34383;-85
2023/09/29 08:43:40;;;;;;;8.65;5.05;;;;;;;22.31;78.59;101081.34;5412711;32;31982;-84
2023/09/29 08:46:52;;;;;;;10.90;5.30;;;;;;;22.48;78.61;101083.38;5403995;32;33467;-84
2023/09/29 08:49:59;;;;;;;10.30;5.43;;;;;;;22.56;78.90;101083.84;5414201;32;31547;-84
2023/09/29 08:53:03;;;;;;;10.88;5.12;;;;;;;22.77;79.10;101078.81;5430758;32;33447;-84
2023/09/29 08:56:11;;;;;;;14.95;5.87;;;;;;;22.89;77.55;101076.88;5423463;32;33647;-85
2023/09/29 08:59:15;;;;;;;8.53;5.37;;;;;;;23.00;77.01;101091.69;5416934;32;32968;-84
2023/09/29 09:02:18;;;;;;;10.73;5.57;;;;;;;23.04;78.40;101085.44;5420551;32;33570;-84
2023/09/29 09:05:23;;;;;;;10.25;5.60;;;;;;;23.30;77.50;101085.97;5420857;32;33677;-84
2023/09/29 09:08:27;;;;;;;7.25;5.22;;;;;;;23.40;76.75;101088.91;5409554;32;33791;-83
2023/09/29 09:11:41;;;;;;;9.50;5.30;;;;;;;23.34;74.72;101080.78;5423206;32;33444;-86
2023/09/29 09:14:44;;;;;;;9.40;5.55;;;;;;;23.60;74.20;101080.19;5428173;32;34044;-83
2023/09/29 09:17:49;;;;;;;10.05;5.50;;;;;;;23.53;74.85;101080.34;5402436;32;33355;-83
2023/09/29 09:20:52;;;;;;;10.27;5.82;;;;;;;23.73;76.93;101076.34;5416569;32;33828;-82
2023/09/29 09:23:55;;;;;;;9.20;5.28;;;;;;;23.94;74.60;101077.53;5421778;32;33993;-81
2023/09/29 09:27:02;;;;;;;10.23;5.53;;;;;;;23.93;71.11;101078.63;5411143;32;33200;-82
2023/09/29 09:30:26;;;;;;;9.20;5.47;;;;;;;23.93;67.97;101071.19;5420310;32;33554;-82
2023/09/29 09:33:37;;;;;;;10.18;5.40;;;;;;;24.09;69.68;101071.44;5416754;32;34144;-84
2023/09/29 09:36:52;;;;;;;7.68;5.30;;;;;;;24.04;66.95;101069.41;5406179;32;33281;-83
2023/09/29 09:39:56;;;;;;;10.02;5.20;;;;;;;24.27;68.49;101071.16;5424337;32;33540;-83
2023/09/29 09:43:02;;;;;;;6.85;4.72;;;;;;;24.39;68.14;101066.38;5429056;32;34276;-83
2023/09/29 09:46:12;;;;;;;10.05;5.20;;;;;;;24.63;67.89;101068.97;5422595;32;34514;-82
2023/09/29 09:49:22;;;;;;;11.10;5.60;;;;;;;24.68;67.50;101063.50;5434949;32;34624;-82
2023/09/29 09:52:30;;;;;;;7.03;5.45;;;;;;;24.50;66.64;101064.66;5419420;32;32968;-81
2023/09/29 09:55:57;;;;;;;7.82;5.75;;;;;;;24.78;70.63;101063.66;5428343;32;33221;-82
2023/09/29 09:59:02;;;;;;;10.43;5.50;;;;;;;24.77;65.24;101059.22;5428335;32;32778;-81
2023/09/29 10:02:07;;;;;;;10.57;5.37;;;;;;;24.85;65.19;101060.69;5418204;32;33248;-80
2023/09/29 10:05:16;;;;;;;8.02;5.47;;;;;;;25.06;63.42;101053.50;5420990;32;33250;-80
2023/09/29 10:08:29;;;;;;;9.68;5.22;;;;;;;25.18;63.26;101057.00;5418648;32;33625;-85
2023/09/29 10:11:34;;;;;;;8.02;5.05;;;;;;;25.20;64.19;101051.22;5423647;32;33960;-81
2023/09/29 10:14:44;;;;;;;7.57;4.60;;;;;;;25.15;64.68;101048.41;5408476;32;33983;-81
2023/09/29 10:17:49;;;;;;;10.43;5.32;;;;;;;25.22;63.42;101043.53;5434287;32;33257;-81
2023/09/29 10:21:00;;;;;;;12.40;5.72;;;;;;;25.54;65.11;101038.91;5419451;32;34494;-82
2023/09/29 10:24:05;;;;;;;7.15;4.50;;;;;;;25.68;62.73;101036.56;5427016;32;33315;-81
2023/09/29 10:27:11;;;;;;;9.07;5.00;;;;;;;25.83;58.12;101035.88;5432862;32;33870;-81
2023/09/29 10:30:18;;;;;;;10.30;4.97;;;;;;;25.94;58.88;101037.59;5437959;32;33169;-80
2023/09/29 10:33:21;;;;;;;10.23;5.03;;;;;;;26.33;59.42;101037.34;5438222;32;33032;-81
2023/09/29 10:36:28;;;;;;;8.35;5.05;;;;;;;26.56;54.61;101038.03;5433686;32;34119;-81
2023/09/29 10:39:31;;;;;;;6.57;4.68;;;;;;;26.66;53.50;101035.31;5419921;32;32989;-81
2023/09/29 10:42:40;;;;;;;7.20;5.05;;;;;;;27.05;55.98;101027.44;5431741;32;33991;-81
2023/09/29 10:45:44;;;;;;;7.30;4.57;;;;;;;27.07;53.31;101019.72;5423466;32;33276;-81
2023/09/29 10:48:49;;;;;;;8.18;4.53;;;;;;;27.26;54.04;101017.31;5420716;32;34557;-81
2023/09/29 10:51:52;;;;;;;10.18;4.95;;;;;;;27.53;49.72;101019.00;5419716;32;33244;-81
2023/09/29 10:54:58;;;;;;;7.12;4.68;;;;;;;27.79;48.17;101009.63;5421694;32;34069;-80
2023/09/29 10:58:03;;;;;;;6.78;4.70;;;;;;;28.08;46.92;101009.03;5424300;32;32883;-81
2023/09/29 11:01:07;;;;;;;7.93;4.80;;;;;;;28.20;47.02;101011.50;5419944;32;33498;-81
2023/09/29 11:04:11;;;;;;;8.70;4.75;;;;;;;28.62;44.49;101005.56;5414411;32;32972;-81
2023/09/29 11:07:15;;;;;;;9.25;4.60;;;;;;;28.76;42.91;100999.44;5407931;32;32919;-81
2023/09/29 11:10:19;;;;;;;6.82;4.43;;;;;;;29.15;41.36;100991.19;5427247;32;32965;-81
2023/09/29 11:13:23;;;;;;;9.57;4.78;;;;;;;29.32;39.96;100994.41;5415665;32;32854;-81
2023/09/29 11:16:27;;;;;;;7.10;4.80;;;;;;;29.52;36.09;100987.03;5393188;32;32873;-81
2023/09/29 11:19:31;;;;;;;8.98;4.60;;;;;;;29.82;36.24;100978.47;5417329;32;34330;-81
2023/09/29 11:22:36;;;;;;;8.20;4.47;;;;;;;30.57;36.34;100981.81;5408306;32;33079;-81
2023/09/29 11:25:57;;;;;;;6.85;4.70;;;;;;;31.13;34.79;100972.75;5427737;32;32959;-81
2023/09/29 11:29:01;;;;;;;9.05;4.90;;;;;;;31.90;32.79;100969.53;5421719;32;33716;-84
2023/09/29 11:32:04;;;;;;;9.30;4.53;;;;;;;32.44;31.03;100967.94;5419695;32;33489;-85
2023/09/29 11:35:13;;;;;;;7.32;4.50;;;;;;;32.57;31.35;100960.72;5420118;32;34235;-85
2023/09/29 11:38:20;;;;;;;7.85;4.20;;;;;;;33.14;30.11;100960.28;5417298;32;33433;-82
2023/09/29 11:41:22;;;;;;;6.85;4.43;;;;;;;33.63;31.11;100950.97;5423500;32;33400;-82
2023/09/29 11:44:26;;;;;;;6.85;4.37;;;;;;;34.28;28.20;100954.25;5417800;32;32970;-81
2023/09/29 11:47:28;;;;;;;7.50;3.75;;;;;;;35.18;25.54;100950.97;5419436;32;33446;-82
2023/09/29 11:50:33;;;;;;;5.80;3.90;;;;;;;36.03;23.48;100945.53;5404341;32;32847;-82
2023/09/29 11:53:38;;;;;;;4.50;3.67;;;;;;;37.58;22.29;100947.59;5427356;32;34093;-81
2023/09/29 11:56:41;;;;;;;5.22;4.03;;;;;;;37.82;21.26;100937.56;5407119;32;33558;-81
2023/09/29 11:59:44;;;;;;;4.47;3.45;;;;;;;39.35;20.64;100938.81;5408239;32;33040;-81
2023/09/29 12:02:47;;;;;;;3.50;3.15;;;;;;;39.03;19.46;100940.69;5399180;32;33848;-81
2023/09/29 12:05:51;;;;;;;5.40;3.33;;;;;;;39.60;19.53;100938.66;5436739;32;34212;-82
2023/09/29 12:08:54;;;;;;;5.18;3.62;;;;;;;39.60;19.94;100933.03;5430669;32;33727;-81
2023/09/29 12:12:00;;;;;;;5.07;3.53;;;;;;;40.52;19.08;100920.47;5418781;32;33531;-81
2023/09/29 12:15:06;;;;;;;4.30;3.50;;;;;;;39.45;19.53;100932.66;5432879;32;33692;-81
2023/09/29 12:18:10;;;;;;;4.68;3.60;;;;;;;39.43;19.22;100922.91;5425423;32;33005;-82
2023/09/29 12:21:14;;;;;;;5.30;3.35;;;;;;;39.99;18.55;100919.16;5423426;32;33384;-82
2023/09/29 12:24:19;;;;;;;6.28;3.12;;;;;;;40.84;17.80;100911.06;5422657;32;33153;-82
2023/09/29 12:27:22;;;;;;;5.32;3.55;;;;;;;41.32;17.19;100912.47;5427831;32;33369;-82
2023/09/29 12:30:25;;;;;;;6.35;3.60;;;;;;;41.23;17.51;100907.06;5405359;32;33469;-81
2023/09/29 12:33:28;;;;;;;3.72;3.40;;;;;;;42.65;17.31;100892.88;5409288;32;34158;-81
2023/09/29 12:36:32;;;;;;;4.62;3.65;;;;;;;43.05;16.84;100894.19;5405689;32;33939;-82
2023/09/29 12:39:35;;;;;;;4.93;3.47;;;;;;;40.72;19.10;100892.25;5392338;32;34500;-81
2023/09/29 12:42:42;;;;;;;6.25;3.20;;;;;;;42.37;17.58;100892.47;5428480;32;33052;-81
2023/09/29 12:45:45;;;;;;;4.03;3.62;;;;;;;43.07;16.74;100894.63;5414680;32;33060;-81
2023/09/29 12:48:49;;;;;;;6.55;3.70;;;;;;;43.20;16.79;100883.84;5419727;32;33302;-81
2023/09/29 12:51:53;;;;;;;5.28;3.45;;;;;;;43.64;16.50;100886.72;5403646;32;33386;-80
2023/09/29 12:55:04;;;;;;;5.47;3.15;;;;;;;43.72;15.73;100884.78;5410827;32;32886;-81
2023/09/29 12:58:08;;;;;;;6.00;3.92;;;;;;;44.26;15.53;100882.31;5394798;32;33408;-82
2023/09/29 13:01:11;;;;;;;5.40;3.22;;;;;;;43.59;15.94;100877.78;5425118;32;33348;-81
2023/09/29 13:04:14;;;;;;;5.85;3.50;;;;;;;41.63;16.92;100874.72;5417882;32;33584;-81
2023/09/29 13:07:17;;;;;;;5.32;3.42;;;;;;;42.77;15.95;100878.50;5408551;32;33999;-82
2023/09/29 13:10:22;;;;;;;6.57;3.28;;;;;;;41.53;16.62;100871.69;5417873;32;33048;-81
2023/09/29 13:13:26;;;;;;;6.35;3.35;;;;;;;41.06;17.15;100870.81;5434167;32;31523;-81
2023/09/29 13:16:29;;;;;;;5.03;3.75;;;;;;;41.17;16.90;100866.19;5428209;32;35027;-81
2023/09/29 13:19:32;;;;;;;5.15;3.45;;;;;;;39.55;18.20;100868.47;5429129;32;33210;-82
2023/09/29 13:22:35;;;;;;;4.40;3.40;;;;;;;38.23;19.27;100863.47;5408104;32;33856;-85
2023/09/29 13:25:39;;;;;;;7.78;4.07;;;;;;;36.95;20.34;100855.03;5401819;32;33361;-85
2023/09/29 13:28:43;;;;;;;7.07;3.80;;;;;;;35.99;23.02;100859.66;5413894;32;34059;-85
2023/09/29 13:31:46;;;;;;;14.87;4.62;;;;;;;35.04;22.14;100866.34;5415392;32;34445;-86
2023/09/29 13:34:51;;;;;;;6.72;3.92;;;;;;;34.44;24.21;100863.19;5421104;32;33543;-82
2023/09/29 13:37:55;;;;;;;6.65;3.90;;;;;;;34.46;22.26;100858.09;5425496;32;33397;-82
2023/09/29 13:40:58;;;;;;;8.75;4.10;;;;;;;33.74;23.43;100858.56;5406252;32;33350;-82
2023/09/29 13:44:01;;;;;;;4.93;3.85;;;;;;;32.96;24.04;100864.44;5406840;32;33243;-82
2023/09/29 13:47:04;;;;;;;7.25;4.20;;;;;;;31.77;24.90;100854.22;5409341;32;33674;-82
2023/09/29 13:50:11;;;;;;;8.00;3.58;;;;;;;31.18;25.31;100853.87;5410265;32;33274;-82
2023/09/29 13:53:14;;;;;;;6.70;3.78;;;;;;;30.38;27.68;100859.53;5404359;32;34495;-81
2023/09/29 13:56:17;;;;;;;13.40;4.03;;;;;;;29.85;28.90;100854.91;5394754;32;33427;-81
2023/09/29 13:59:20;;;;;;;5.28;3.83;;;;;;;29.25;29.64;100852.47;5420673;32;33457;-81
2023/09/29 14:02:24;;;;;;;7.40;4.18;;;;;;;28.85;29.46;100850.81;5416120;32;34626;-82
2023/09/29 14:05:28;;;;;;;6.47;3.80;;;;;;;28.12;29.25;100846.78;5425349;32;33691;-83
2023/09/29 14:08:32;;;;;;;6.30;3.65;;;;;;;27.83;29.79;100848.56;5400245;32;33270;-83
2023/09/29 14:11:35;;;;;;;5.25;4.07;;;;;;;27.61;29.77;100840.56;5413032;32;33041;-82
2023/09/29 14:14:40;;;;;;;5.03;4.00;;;;;;;27.29;32.03;100837.06;5419342;32;32198;-82
2023/09/29 14:17:44;;;;;;;6.20;4.30;;;;;;;27.14;32.25;100842.53;5405851;32;33103;-83
2023/09/29 14:20:47;;;;;;;7.50;4.18;;;;;;;26.91;31.40;100838.38;5390553;32;33734;-83
2023/09/29 14:23:51;;;;;;;8.98;3.67;;;;;;;26.69;34.09;100835.91;5403547;32;33455;-83
2023/09/29 14:26:54;;;;;;;6.43;3.60;;;;;;;26.43;31.95;100833.06;5413652;32;33377;-84
2023/09/29 14:29:57;;;;;;;8.50;3.90;;;;;;;26.31;33.38;100828.88;5419041;32;33922;-83
2023/09/29 14:33:02;;;;;;;7.05;4.12;;;;;;;26.06;35.74;100827.69;5394775;32;33878;-81
2023/09/29 14:36:07;;;;;;;7.28;4.35;;;;;;;25.89;34.56;100830.69;5402814;32;33448;-83
2023/09/29 14:39:10;;;;;;;7.00;4.07;;;;;;;25.74;34.98;100823.13;5415801;32;33841;-82
2023/09/29 14:42:14;;;;;;;7.05;4.05;;;;;;;25.54;36.65;100818.31;5402419;32;33426;-83
2023/09/29 14:45:17;;;;;;;7.40;3.85;;;;;;;25.38;34.47;100822.06;5415523;32;34967;-82
2023/09/29 14:48:20;;;;;;;5.25;3.83;;;;;;;25.44;33.35;100815.50;5415605;32;33269;-82
2023/09/29 14:51:24;;;;;;;8.40;4.37;;;;;;;25.35;33.07;100814.34;5403271;32;33378;-83
2023/09/29 14:54:27;;;;;;;6.05;4.20;;;;;;;25.26;34.84;100819.50;5409966;32;33390;-83
2023/09/29 14:57:31;;;;;;;6.70;4.65;;;;;;;25.06;34.17;100819.31;5419439;32;33578;-82
2023/09/29 15:00:35;;;;;;;6.85;4.65;;;;;;;24.96;35.37;100814.56;5421383;32;33253;-82
2023/09/29 15:03:37;;;;;;;9.23;4.47;;;;;;;24.84;36.50;100811.16;5406815;32;33306;-82
2023/09/29 15:06:41;;;;;;;5.35;4.22;;;;;;;24.73;38.10;100806.66;5415678;32;33528;-82
2023/09/29 15:09:44;;;;;;;6.57;3.92;;;;;;;24.59;37.04;100804.31;5406702;32;33325;-82
2023/09/29 15:12:47;;;;;;;7.68;4.60;;;;;;;24.46;38.05;100803.94;5405362;32;33088;-82
2023/09/29 15:15:49;;;;;;;6.70;4.55;;;;;;;24.33;37.81;100805.12;5402212;32;34133;-82
2023/09/29 15:18:53;;;;;;;8.77;4.97;;;;;;;24.25;38.49;100805.59;5397969;32;170472;-82
2023/09/29 15:21:57;;;;;;;9.48;5.10;;;;;;;24.17;39.04;100804.97;5401810;32;32384;-82
2023/09/29 15:25:00;;;;;;;5.68;4.53;;;;;;;24.16;39.91;100791.44;5402073;32;33992;-82
2023/09/29 15:28:04;;;;;;;7.53;4.32;;;;;;;23.95;41.41;100801.38;5390722;32;33478;-82
2023/09/29 15:31:07;;;;;;;9.77;4.70;;;;;;;23.85;40.52;100796.59;5415979;32;33411;-85
2023/09/29 15:34:10;;;;;;;6.55;4.40;;;;;;;23.75;39.93;100800.06;5390709;32;32996;-86
2023/09/29 15:37:14;;;;;;;7.25;4.30;;;;;;;23.71;39.56;100804.38;5405229;32;33814;-87
2023/09/29 15:40:17;;;;;;;7.03;4.43;;;;;;;23.69;39.36;100800.19;5419336;32;33520;-86
2023/09/29 15:43:21;;;;;;;6.72;4.18;;;;;;;23.60;39.35;100802.56;5415713;32;34031;-82
2023/09/29 15:46:24;;;;;;;7.75;4.47;;;;;;;23.50;40.34;100805.19;5417209;32;33967;-83
2023/09/29 15:49:28;;;;;;;5.65;4.32;;;;;;;23.35;41.65;100797.56;5408318;32;34291;-83
2023/09/29 15:52:31;;;;;;;9.02;4.68;;;;;;;23.20;41.92;100802.81;5397993;32;33502;-84
